sensor_id;sensor_type;location;lat;lon;timestamp;P1;durP1;ratioP1;P2;durP2;ratioP2
62933;SDS011;49038;47.600;19.242;2023-03-01T00:02:55;17.27;;;8.93;;
62933;SDS011;49038;47.600;19.242;2023-03-01T00:05:57;16.33;;;7.60;;
62933;SDS011;49038;47.600;19.242;2023-03-01T00:09:00;15.43;;;8.18;;
62933;SDS011;49038;47.600;19.242;2023-03-01T00:12:02;12.85;;;7.72;;
62933;SDS011;49038;47.600;19.242;2023-03-01T00:15:05;18.00;;;7.97;;
62933;SDS011;49038;47.600;19.242;2023-03-01T00:18:07;13.77;;;8.52;;
62933;SDS011;49038;47.600;19.242;2023-03-01T00:21:10;16.35;;;8.23;;
62933;SDS011;49038;47.600;19.242;2023-03-01T00:24:12;19.40;;;9.55;;
62933;SDS011;49038;47.600;19.242;2023-03-01T00:27:14;19.20;;;8.38;;
62933;SDS011;49038;47.600;19.242;2023-03-01T00:30:16;17.35;;;7.60;;
62933;SDS011;49038;47.600;19.242;2023-03-01T00:33:19;17.35;;;9.05;;
62933;SDS011;49038;47.600;19.242;2023-03-01T00:36:21;17.87;;;7.90;;
62933;SDS011;49038;47.600;19.242;2023-03-01T00:39:23;12.18;;;7.28;;
62933;SDS011;49038;47.600;19.242;2023-03-01T00:42:25;17.98;;;7.85;;
62933;SDS011;49038;47.600;19.242;2023-03-01T00:45:27;14.13;;;7.00;;
62933;SDS011;49038;47.600;19.242;2023-03-01T00:48:32;12.68;;;6.55;;
62933;SDS011;49038;47.600;19.242;2023-03-01T00:51:35;17.48;;;8.15;;
62933;SDS011;49038;47.600;19.242;2023-03-01T00:54:37;12.00;;;6.28;;
62933;SDS011;49038;47.600;19.242;2023-03-01T00:57:40;14.93;;;7.22;;
62933;SDS011;49038;47.600;19.242;2023-03-01T01:00:42;10.27;;;5.70;;
62933;SDS011;49038;47.600;19.242;2023-03-01T01:03:45;9.00;;;5.68;;
62933;SDS011;49038;47.600;19.242;2023-03-01T01:06:53;8.25;;;5.45;;
62933;SDS011;49038;47.600;19.242;2023-03-01T01:09:55;14.52;;;6.10;;
62933;SDS011;49038;47.600;19.242;2023-03-01T01:12:57;9.05;;;4.90;;
62933;SDS011;49038;47.600;19.242;2023-03-01T01:16:00;10.77;;;6.53;;
62933;SDS011;49038;47.600;19.242;2023-03-01T01:19:03;12.48;;;6.68;;
62933;SDS011;49038;47.600;19.242;2023-03-01T01:22:06;14.82;;;6.53;;
62933;SDS011;49038;47.600;19.242;2023-03-01T01:25:08;14.82;;;8.18;;
62933;SDS011;49038;47.600;19.242;2023-03-01T01:28:10;13.75;;;6.47;;
62933;SDS011;49038;47.600;19.242;2023-03-01T01:31:12;14.80;;;6.22;;
62933;SDS011;49038;47.600;19.242;2023-03-01T01:34:16;12.98;;;6.60;;
62933;SDS011;49038;47.600;19.242;2023-03-01T01:37:20;13.13;;;5.68;;
62933;SDS011;49038;47.600;19.242;2023-03-01T01:40:22;7.72;;;5.28;;
62933;SDS011;49038;47.600;19.242;2023-03-01T01:46:41;7.87;;;5.00;;
62933;SDS011;49038;47.600;19.242;2023-03-01T01:49:51;12.98;;;5.37;;
62933;SDS011;49038;47.600;19.242;2023-03-01T01:52:55;9.98;;;5.32;;
62933;SDS011;49038;47.600;19.242;2023-03-01T01:55:58;8.65;;;5.35;;
62933;SDS011;49038;47.600;19.242;2023-03-01T01:59:02;13.57;;;5.22;;
62933;SDS011;49038;47.600;19.242;2023-03-01T02:02:04;10.40;;;5.62;;
62933;SDS011;49038;47.600;19.242;2023-03-01T02:08:28;6.75;;;4.87;;
62933;SDS011;49038;47.600;19.242;2023-03-01T02:11:34;4.95;;;3.58;;
62933;SDS011;49038;47.600;19.242;2023-03-01T02:14:39;8.00;;;4.72;;
62933;SDS011;49038;47.600;19.242;2023-03-01T02:17:41;7.37;;;4.18;;
62933;SDS011;49038;47.600;19.242;2023-03-01T02:23:47;9.13;;;5.62;;
62933;SDS011;49038;47.600;19.242;2023-03-01T02:26:50;7.22;;;4.12;;
62933;SDS011;49038;47.600;19.242;2023-03-01T02:29:54;8.70;;;3.45;;
62933;SDS011;49038;47.600;19.242;2023-03-01T02:32:58;11.60;;;4.65;;
62933;SDS011;49038;47.600;19.242;2023-03-01T02:36:06;7.95;;;4.72;;
62933;SDS011;49038;47.600;19.242;2023-03-01T02:39:14;8.43;;;4.25;;
62933;SDS011;49038;47.600;19.242;2023-03-01T02:42:21;8.30;;;4.50;;
62933;SDS011;49038;47.600;19.242;2023-03-01T02:45:28;9.80;;;4.53;;
62933;SDS011;49038;47.600;19.242;2023-03-01T02:48:39;8.73;;;4.80;;
62933;SDS011;49038;47.600;19.242;2023-03-01T02:52:33;5.35;;;3.80;;
62933;SDS011;49038;47.600;19.242;2023-03-01T02:55:23;6.55;;;4.53;;
62933;SDS011;49038;47.600;19.242;2023-03-01T02:58:26;9.38;;;5.07;;
62933;SDS011;49038;47.600;19.242;2023-03-01T03:01:28;6.87;;;4.28;;
62933;SDS011;49038;47.600;19.242;2023-03-01T03:04:39;7.68;;;5.30;;
62933;SDS011;49038;47.600;19.242;2023-03-01T03:07:42;10.18;;;4.95;;
62933;SDS011;49038;47.600;19.242;2023-03-01T03:10:46;7.60;;;4.25;;
62933;SDS011;49038;47.600;19.242;2023-03-01T03:13:48;7.32;;;4.05;;
62933;SDS011;49038;47.600;19.242;2023-03-01T03:16:50;6.75;;;4.10;;
62933;SDS011;49038;47.600;19.242;2023-03-01T03:19:53;9.98;;;4.78;;
62933;SDS011;49038;47.600;19.242;2023-03-01T03:22:55;8.55;;;4.78;;
62933;SDS011;49038;47.600;19.242;2023-03-01T03:25:59;6.32;;;4.95;;
62933;SDS011;49038;47.600;19.242;2023-03-01T03:29:02;6.30;;;5.30;;
62933;SDS011;49038;47.600;19.242;2023-03-01T03:32:04;5.65;;;4.57;;
62933;SDS011;49038;47.600;19.242;2023-03-01T03:35:07;5.78;;;4.25;;
62933;SDS011;49038;47.600;19.242;2023-03-01T03:38:12;7.82;;;5.53;;
62933;SDS011;49038;47.600;19.242;2023-03-01T03:41:18;5.65;;;3.97;;
62933;SDS011;49038;47.600;19.242;2023-03-01T03:44:21;7.35;;;4.45;;
62933;SDS011;49038;47.600;19.242;2023-03-01T03:47:23;7.87;;;4.18;;
62933;SDS011;49038;47.600;19.242;2023-03-01T03:50:25;5.87;;;4.78;;
62933;SDS011;49038;47.600;19.242;2023-03-01T03:53:28;8.50;;;4.90;;
62933;SDS011;49038;47.600;19.242;2023-03-01T03:56:31;10.63;;;5.60;;
62933;SDS011;49038;47.600;19.242;2023-03-01T03:59:33;7.40;;;4.18;;
62933;SDS011;49038;47.600;19.242;2023-03-01T04:02:36;10.77;;;4.53;;
62933;SDS011;49038;47.600;19.242;2023-03-01T04:05:39;9.38;;;4.35;;
62933;SDS011;49038;47.600;19.242;2023-03-01T04:08:41;9.18;;;5.45;;
62933;SDS011;49038;47.600;19.242;2023-03-01T04:11:44;5.72;;;3.95;;
62933;SDS011;49038;47.600;19.242;2023-03-01T04:14:46;10.68;;;5.35;;
62933;SDS011;49038;47.600;19.242;2023-03-01T04:17:50;12.18;;;5.25;;
62933;SDS011;49038;47.600;19.242;2023-03-01T04:20:54;6.18;;;4.40;;
62933;SDS011;49038;47.600;19.242;2023-03-01T04:23:57;10.35;;;5.57;;
62933;SDS011;49038;47.600;19.242;2023-03-01T04:26:59;8.38;;;4.65;;
62933;SDS011;49038;47.600;19.242;2023-03-01T04:30:02;9.52;;;5.43;;
62933;SDS011;49038;47.600;19.242;2023-03-01T04:33:06;10.02;;;5.47;;
62933;SDS011;49038;47.600;19.242;2023-03-01T04:36:09;9.35;;;4.90;;
62933;SDS011;49038;47.600;19.242;2023-03-01T04:39:12;7.25;;;4.75;;
62933;SDS011;49038;47.600;19.242;2023-03-01T04:42:15;6.55;;;3.92;;
62933;SDS011;49038;47.600;19.242;2023-03-01T04:45:18;6.37;;;4.30;;
62933;SDS011;49038;47.600;19.242;2023-03-01T04:48:21;7.70;;;4.30;;
62933;SDS011;49038;47.600;19.242;2023-03-01T04:51:23;7.80;;;4.60;;
62933;SDS011;49038;47.600;19.242;2023-03-01T04:54:25;7.00;;;4.25;;
62933;SDS011;49038;47.600;19.242;2023-03-01T04:57:28;7.90;;;4.50;;
62933;SDS011;49038;47.600;19.242;2023-03-01T05:00:30;5.57;;;4.07;;
62933;SDS011;49038;47.600;19.242;2023-03-01T05:03:32;9.23;;;4.82;;
62933;SDS011;49038;47.600;19.242;2023-03-01T05:06:34;9.38;;;5.15;;
62933;SDS011;49038;47.600;19.242;2023-03-01T05:09:36;8.07;;;5.47;;
62933;SDS011;49038;47.600;19.242;2023-03-01T05:12:38;7.15;;;3.90;;
62933;SDS011;49038;47.600;19.242;2023-03-01T05:15:41;6.37;;;4.43;;
62933;SDS011;49038;47.600;19.242;2023-03-01T05:18:43;7.18;;;4.85;;
62933;SDS011;49038;47.600;19.242;2023-03-01T05:21:45;7.75;;;5.07;;
62933;SDS011;49038;47.600;19.242;2023-03-01T05:25:06;8.23;;;5.20;;
62933;SDS011;49038;47.600;19.242;2023-03-01T05:28:10;7.22;;;4.70;;
62933;SDS011;49038;47.600;19.242;2023-03-01T05:31:13;9.15;;;5.20;;
62933;SDS011;49038;47.600;19.242;2023-03-01T05:34:15;6.82;;;4.05;;
62933;SDS011;49038;47.600;19.242;2023-03-01T05:37:17;12.05;;;4.10;;
62933;SDS011;49038;47.600;19.242;2023-03-01T05:40:22;8.07;;;4.68;;
62933;SDS011;49038;47.600;19.242;2023-03-01T05:43:25;6.12;;;4.05;;
62933;SDS011;49038;47.600;19.242;2023-03-01T05:46:28;8.05;;;4.28;;
62933;SDS011;49038;47.600;19.242;2023-03-01T05:49:31;8.60;;;5.12;;
62933;SDS011;49038;47.600;19.242;2023-03-01T05:52:33;5.50;;;3.80;;
62933;SDS011;49038;47.600;19.242;2023-03-01T05:55:36;8.55;;;3.87;;
62933;SDS011;49038;47.600;19.242;2023-03-01T05:58:39;6.90;;;3.70;;
62933;SDS011;49038;47.600;19.242;2023-03-01T06:01:41;10.93;;;5.57;;
62933;SDS011;49038;47.600;19.242;2023-03-01T06:04:44;5.90;;;4.57;;
62933;SDS011;49038;47.600;19.242;2023-03-01T06:07:46;10.30;;;5.30;;
62933;SDS011;49038;47.600;19.242;2023-03-01T06:10:48;7.80;;;5.68;;
62933;SDS011;49038;47.600;19.242;2023-03-01T06:13:50;11.45;;;6.45;;
62933;SDS011;49038;47.600;19.242;2023-03-01T06:16:52;11.20;;;5.03;;
62933;SDS011;49038;47.600;19.242;2023-03-01T06:19:55;7.18;;;4.12;;
62933;SDS011;49038;47.600;19.242;2023-03-01T06:22:57;11.93;;;5.65;;
62933;SDS011;49038;47.600;19.242;2023-03-01T06:25:59;11.52;;;6.37;;
62933;SDS011;49038;47.600;19.242;2023-03-01T06:29:02;6.97;;;4.43;;
62933;SDS011;49038;47.600;19.242;2023-03-01T06:32:04;10.65;;;6.00;;
62933;SDS011;49038;47.600;19.242;2023-03-01T06:35:06;13.27;;;7.10;;
62933;SDS011;49038;47.600;19.242;2023-03-01T06:38:09;8.88;;;6.00;;
62933;SDS011;49038;47.600;19.242;2023-03-01T06:41:11;9.82;;;5.70;;
62933;SDS011;49038;47.600;19.242;2023-03-01T06:44:13;12.88;;;5.68;;
62933;SDS011;49038;47.600;19.242;2023-03-01T06:47:15;10.98;;;6.50;;
62933;SDS011;49038;47.600;19.242;2023-03-01T06:50:18;8.68;;;5.22;;
62933;SDS011;49038;47.600;19.242;2023-03-01T06:53:20;7.30;;;4.28;;
62933;SDS011;49038;47.600;19.242;2023-03-01T06:56:22;15.75;;;7.43;;
62933;SDS011;49038;47.600;19.242;2023-03-01T06:59:25;14.60;;;6.57;;
62933;SDS011;49038;47.600;19.242;2023-03-01T07:02:27;8.68;;;6.00;;
62933;SDS011;49038;47.600;19.242;2023-03-01T07:05:29;7.70;;;5.65;;
62933;SDS011;49038;47.600;19.242;2023-03-01T07:08:32;9.73;;;5.45;;
62933;SDS011;49038;47.600;19.242;2023-03-01T07:11:34;11.10;;;4.85;;
62933;SDS011;49038;47.600;19.242;2023-03-01T07:14:36;7.40;;;5.00;;
62933;SDS011;49038;47.600;19.242;2023-03-01T07:17:39;5.45;;;4.05;;
62933;SDS011;49038;47.600;19.242;2023-03-01T07:20:41;6.72;;;4.62;;
62933;SDS011;49038;47.600;19.242;2023-03-01T07:23:43;9.35;;;5.30;;
62933;SDS011;49038;47.600;19.242;2023-03-01T07:26:48;8.27;;;4.53;;
62933;SDS011;49038;47.600;19.242;2023-03-01T07:29:53;8.35;;;4.80;;
62933;SDS011;49038;47.600;19.242;2023-03-01T07:32:56;4.70;;;3.08;;
62933;SDS011;49038;47.600;19.242;2023-03-01T07:36:00;4.78;;;3.85;;
62933;SDS011;49038;47.600;19.242;2023-03-01T07:39:04;7.57;;;4.47;;
62933;SDS011;49038;47.600;19.242;2023-03-01T07:42:06;4.82;;;3.72;;
62933;SDS011;49038;47.600;19.242;2023-03-01T07:45:08;8.63;;;3.95;;
62933;SDS011;49038;47.600;19.242;2023-03-01T07:48:11;7.93;;;5.70;;
62933;SDS011;49038;47.600;19.242;2023-03-01T07:51:13;9.18;;;4.25;;
62933;SDS011;49038;47.600;19.242;2023-03-01T07:54:15;7.60;;;4.50;;
62933;SDS011;49038;47.600;19.242;2023-03-01T07:57:18;9.77;;;4.20;;
62933;SDS011;49038;47.600;19.242;2023-03-01T08:00:20;10.70;;;4.10;;
62933;SDS011;49038;47.600;19.242;2023-03-01T08:03:22;16.58;;;9.65;;
62933;SDS011;49038;47.600;19.242;2023-03-01T08:06:25;6.62;;;4.25;;
62933;SDS011;49038;47.600;19.242;2023-03-01T08:09:27;9.93;;;5.00;;
62933;SDS011;49038;47.600;19.242;2023-03-01T08:12:29;9.10;;;4.45;;
62933;SDS011;49038;47.600;19.242;2023-03-01T08:15:31;9.02;;;4.12;;
62933;SDS011;49038;47.600;19.242;2023-03-01T08:18:34;21.08;;;5.55;;
62933;SDS011;49038;47.600;19.242;2023-03-01T08:21:36;7.65;;;4.95;;
62933;SDS011;49038;47.600;19.242;2023-03-01T08:24:38;21.45;;;8.55;;
62933;SDS011;49038;47.600;19.242;2023-03-01T08:27:40;9.40;;;4.85;;
62933;SDS011;49038;47.600;19.242;2023-03-01T08:30:43;8.48;;;4.53;;
62933;SDS011;49038;47.600;19.242;2023-03-01T08:33:45;7.32;;;4.30;;
62933;SDS011;49038;47.600;19.242;2023-03-01T08:36:56;8.70;;;4.62;;
62933;SDS011;49038;47.600;19.242;2023-03-01T08:39:59;7.12;;;4.35;;
62933;SDS011;49038;47.600;19.242;2023-03-01T08:43:02;6.25;;;3.70;;
62933;SDS011;49038;47.600;19.242;2023-03-01T08:46:05;10.75;;;3.33;;
62933;SDS011;49038;47.600;19.242;2023-03-01T08:49:08;7.00;;;3.83;;
62933;SDS011;49038;47.600;19.242;2023-03-01T08:52:16;8.57;;;5.05;;
62933;SDS011;49038;47.600;19.242;2023-03-01T08:55:18;7.50;;;4.32;;
62933;SDS011;49038;47.600;19.242;2023-03-01T08:58:20;4.15;;;3.03;;
62933;SDS011;49038;47.600;19.242;2023-03-01T09:01:23;6.07;;;3.40;;
62933;SDS011;49038;47.600;19.242;2023-03-01T09:04:25;5.97;;;3.70;;
62933;SDS011;49038;47.600;19.242;2023-03-01T09:07:27;5.45;;;3.20;;
62933;SDS011;49038;47.600;19.242;2023-03-01T09:10:32;5.37;;;3.50;;
62933;SDS011;49038;47.600;19.242;2023-03-01T09:13:35;4.85;;;3.00;;
62933;SDS011;49038;47.600;19.242;2023-03-01T09:16:37;7.62;;;4.20;;
62933;SDS011;49038;47.600;19.242;2023-03-01T09:19:40;5.47;;;3.20;;
62933;SDS011;49038;47.600;19.242;2023-03-01T09:22:42;6.22;;;3.20;;
62933;SDS011;49038;47.600;19.242;2023-03-01T09:25:45;4.50;;;3.35;;
62933;SDS011;49038;47.600;19.242;2023-03-01T09:28:48;5.75;;;3.30;;
62933;SDS011;49038;47.600;19.242;2023-03-01T09:31:51;4.95;;;3.20;;
62933;SDS011;49038;47.600;19.242;2023-03-01T09:34:57;7.60;;;3.33;;
62933;SDS011;49038;47.600;19.242;2023-03-01T09:38:08;6.30;;;3.62;;
62933;SDS011;49038;47.600;19.242;2023-03-01T09:47:32;4.37;;;2.92;;
62933;SDS011;49038;47.600;19.242;2023-03-01T09:50:36;5.85;;;3.70;;
62933;SDS011;49038;47.600;19.242;2023-03-01T09:53:41;5.30;;;3.12;;
62933;SDS011;49038;47.600;19.242;2023-03-01T09:56:49;6.80;;;3.65;;
62933;SDS011;49038;47.600;19.242;2023-03-01T10:06:30;7.12;;;3.50;;
62933;SDS011;49038;47.600;19.242;2023-03-01T10:09:40;5.18;;;2.92;;
62933;SDS011;49038;47.600;19.242;2023-03-01T10:12:44;5.35;;;2.45;;
62933;SDS011;49038;47.600;19.242;2023-03-01T10:15:51;8.10;;;3.55;;
62933;SDS011;49038;47.600;19.242;2023-03-01T10:18:58;4.97;;;2.67;;
62933;SDS011;49038;47.600;19.242;2023-03-01T10:22:04;3.97;;;2.65;;
62933;SDS011;49038;47.600;19.242;2023-03-01T10:25:15;7.05;;;3.40;;
62933;SDS011;49038;47.600;19.242;2023-03-01T10:28:25;5.45;;;2.92;;
62933;SDS011;49038;47.600;19.242;2023-03-01T10:31:51;7.03;;;3.17;;
62933;SDS011;49038;47.600;19.242;2023-03-01T10:34:54;3.72;;;2.47;;
62933;SDS011;49038;47.600;19.242;2023-03-01T10:41:08;5.00;;;2.87;;
62933;SDS011;49038;47.600;19.242;2023-03-01T10:44:10;4.85;;;2.85;;
62933;SDS011;49038;47.600;19.242;2023-03-01T10:47:41;3.87;;;2.50;;
62933;SDS011;49038;47.600;19.242;2023-03-01T10:50:45;5.90;;;3.20;;
62933;SDS011;49038;47.600;19.242;2023-03-01T10:53:49;3.85;;;2.15;;
62933;SDS011;49038;47.600;19.242;2023-03-01T10:56:57;5.10;;;3.10;;
62933;SDS011;49038;47.600;19.242;2023-03-01T11:00:02;6.68;;;3.30;;
62933;SDS011;49038;47.600;19.242;2023-03-01T11:06:33;5.25;;;2.75;;
62933;SDS011;49038;47.600;19.242;2023-03-01T11:09:36;6.28;;;3.47;;
62933;SDS011;49038;47.600;19.242;2023-03-01T11:12:41;3.90;;;3.08;;
62933;SDS011;49038;47.600;19.242;2023-03-01T11:15:58;6.10;;;3.67;;
62933;SDS011;49038;47.600;19.242;2023-03-01T11:22:14;12.00;;;2.37;;
62933;SDS011;49038;47.600;19.242;2023-03-01T11:25:26;8.23;;;3.50;;
62933;SDS011;49038;47.600;19.242;2023-03-01T11:28:29;5.28;;;3.20;;
62933;SDS011;49038;47.600;19.242;2023-03-01T11:31:32;5.97;;;2.87;;
62933;SDS011;49038;47.600;19.242;2023-03-01T11:37:59;4.00;;;2.45;;
62933;SDS011;49038;47.600;19.242;2023-03-01T11:41:20;4.55;;;2.72;;
62933;SDS011;49038;47.600;19.242;2023-03-01T11:44:26;4.57;;;2.65;;
62933;SDS011;49038;47.600;19.242;2023-03-01T11:47:33;3.53;;;2.47;;
62933;SDS011;49038;47.600;19.242;2023-03-01T11:50:54;5.18;;;3.15;;
62933;SDS011;49038;47.600;19.242;2023-03-01T12:04:11;5.68;;;2.65;;
62933;SDS011;49038;47.600;19.242;2023-03-01T12:07:45;6.85;;;3.55;;
62933;SDS011;49038;47.600;19.242;2023-03-01T12:14:48;2.83;;;2.00;;
62933;SDS011;49038;47.600;19.242;2023-03-01T12:18:23;15.43;;;6.05;;
62933;SDS011;49038;47.600;19.242;2023-03-01T12:21:39;6.78;;;2.85;;
62933;SDS011;49038;47.600;19.242;2023-03-01T12:28:04;4.97;;;2.97;;
62933;SDS011;49038;47.600;19.242;2023-03-01T12:38:42;5.78;;;2.50;;
62933;SDS011;49038;47.600;19.242;2023-03-01T12:48:38;4.90;;;1.90;;
62933;SDS011;49038;47.600;19.242;2023-03-01T12:51:56;3.60;;;1.80;;
62933;SDS011;49038;47.600;19.242;2023-03-01T12:55:05;3.00;;;1.85;;
62933;SDS011;49038;47.600;19.242;2023-03-01T13:01:56;2.83;;;1.58;;
62933;SDS011;49038;47.600;19.242;2023-03-01T13:08:31;3.85;;;2.25;;
62933;SDS011;49038;47.600;19.242;2023-03-01T13:11:45;2.58;;;1.95;;
62933;SDS011;49038;47.600;19.242;2023-03-01T13:14:48;2.40;;;1.70;;
62933;SDS011;49038;47.600;19.242;2023-03-01T13:17:52;5.62;;;3.12;;
62933;SDS011;49038;47.600;19.242;2023-03-01T13:20:55;6.55;;;2.30;;
62933;SDS011;49038;47.600;19.242;2023-03-01T13:23:59;6.57;;;3.65;;
62933;SDS011;49038;47.600;19.242;2023-03-01T13:30:53;2.60;;;2.00;;
62933;SDS011;49038;47.600;19.242;2023-03-01T13:33:48;4.12;;;2.08;;
62933;SDS011;49038;47.600;19.242;2023-03-01T13:36:50;7.40;;;2.22;;
62933;SDS011;49038;47.600;19.242;2023-03-01T13:39:53;5.65;;;2.25;;
62933;SDS011;49038;47.600;19.242;2023-03-01T13:42:55;3.00;;;2.08;;
62933;SDS011;49038;47.600;19.242;2023-03-01T13:49:28;3.67;;;1.73;;
62933;SDS011;49038;47.600;19.242;2023-03-01T13:52:57;3.30;;;1.75;;
62933;SDS011;49038;47.600;19.242;2023-03-01T13:56:02;3.25;;;2.30;;
62933;SDS011;49038;47.600;19.242;2023-03-01T13:59:14;4.87;;;1.92;;
62933;SDS011;49038;47.600;19.242;2023-03-01T14:02:17;5.62;;;2.58;;
62933;SDS011;49038;47.600;19.242;2023-03-01T14:05:20;5.75;;;2.17;;
62933;SDS011;49038;47.600;19.242;2023-03-01T14:08:23;3.37;;;1.70;;
62933;SDS011;49038;47.600;19.242;2023-03-01T14:14:55;3.67;;;2.22;;
62933;SDS011;49038;47.600;19.242;2023-03-01T14:21:09;3.17;;;2.10;;
62933;SDS011;49038;47.600;19.242;2023-03-01T14:24:18;5.10;;;2.30;;
62933;SDS011;49038;47.600;19.242;2023-03-01T14:27:27;2.70;;;1.67;;
62933;SDS011;49038;47.600;19.242;2023-03-01T14:30:36;2.17;;;1.50;;
62933;SDS011;49038;47.600;19.242;2023-03-01T14:33:40;8.07;;;2.10;;
62933;SDS011;49038;47.600;19.242;2023-03-01T14:36:43;4.07;;;1.80;;
62933;SDS011;49038;47.600;19.242;2023-03-01T14:39:45;2.47;;;1.48;;
62933;SDS011;49038;47.600;19.242;2023-03-01T14:42:47;2.12;;;1.58;;
62933;SDS011;49038;47.600;19.242;2023-03-01T14:45:49;11.32;;;2.03;;
62933;SDS011;49038;47.600;19.242;2023-03-01T14:48:53;5.55;;;2.15;;
62933;SDS011;49038;47.600;19.242;2023-03-01T14:51:58;3.80;;;1.77;;
62933;SDS011;49038;47.600;19.242;2023-03-01T14:55:16;8.68;;;3.47;;
62933;SDS011;49038;47.600;19.242;2023-03-01T14:58:23;4.47;;;2.72;;
62933;SDS011;49038;47.600;19.242;2023-03-01T15:01:26;5.85;;;2.97;;
62933;SDS011;49038;47.600;19.242;2023-03-01T15:04:29;7.22;;;2.45;;
62933;SDS011;49038;47.600;19.242;2023-03-01T15:07:38;3.25;;;1.85;;
62933;SDS011;49038;47.600;19.242;2023-03-01T15:10:54;2.62;;;1.90;;
62933;SDS011;49038;47.600;19.242;2023-03-01T15:14:01;2.83;;;1.87;;
62933;SDS011;49038;47.600;19.242;2023-03-01T15:17:03;2.42;;;1.87;;
62933;SDS011;49038;47.600;19.242;2023-03-01T15:20:16;3.03;;;1.95;;
62933;SDS011;49038;47.600;19.242;2023-03-01T15:26:30;13.25;;;6.12;;
62933;SDS011;49038;47.600;19.242;2023-03-01T15:29:33;13.25;;;8.73;;
62933;SDS011;49038;47.600;19.242;2023-03-01T15:32:42;3.60;;;2.50;;
62933;SDS011;49038;47.600;19.242;2023-03-01T15:35:45;5.12;;;3.12;;
62933;SDS011;49038;47.600;19.242;2023-03-01T15:38:55;4.85;;;2.95;;
62933;SDS011;49038;47.600;19.242;2023-03-01T15:41:59;6.37;;;2.78;;
62933;SDS011;49038;47.600;19.242;2023-03-01T15:48:18;4.53;;;2.12;;
62933;SDS011;49038;47.600;19.242;2023-03-01T15:51:22;3.25;;;2.08;;
62933;SDS011;49038;47.600;19.242;2023-03-01T15:54:30;8.10;;;3.80;;
62933;SDS011;49038;47.600;19.242;2023-03-01T15:57:32;5.10;;;2.58;;
62933;SDS011;49038;47.600;19.242;2023-03-01T16:00:35;12.00;;;7.45;;
62933;SDS011;49038;47.600;19.242;2023-03-01T16:03:37;11.05;;;7.20;;
62933;SDS011;49038;47.600;19.242;2023-03-01T16:06:39;5.47;;;4.00;;
62933;SDS011;49038;47.600;19.242;2023-03-01T16:09:41;8.15;;;3.83;;
62933;SDS011;49038;47.600;19.242;2023-03-01T16:12:45;5.03;;;3.65;;
62933;SDS011;49038;47.600;19.242;2023-03-01T16:15:49;7.68;;;2.80;;
62933;SDS011;49038;47.600;19.242;2023-03-01T16:18:51;9.75;;;3.17;;
62933;SDS011;49038;47.600;19.242;2023-03-01T16:21:56;5.20;;;3.05;;
62933;SDS011;49038;47.600;19.242;2023-03-01T16:24:58;7.03;;;3.03;;
62933;SDS011;49038;47.600;19.242;2023-03-01T16:28:00;5.05;;;2.60;;
62933;SDS011;49038;47.600;19.242;2023-03-01T16:31:06;6.28;;;3.00;;
62933;SDS011;49038;47.600;19.242;2023-03-01T16:34:09;10.82;;;5.18;;
62933;SDS011;49038;47.600;19.242;2023-03-01T16:37:12;35.67;;;11.73;;
62933;SDS011;49038;47.600;19.242;2023-03-01T16:40:18;35.22;;;12.23;;
62933;SDS011;49038;47.600;19.242;2023-03-01T16:43:22;13.18;;;7.70;;
62933;SDS011;49038;47.600;19.242;2023-03-01T16:46:25;21.35;;;9.85;;
62933;SDS011;49038;47.600;19.242;2023-03-01T16:49:30;25.77;;;11.30;;
62933;SDS011;49038;47.600;19.242;2023-03-01T16:52:33;38.42;;;14.43;;
62933;SDS011;49038;47.600;19.242;2023-03-01T16:55:36;93.57;;;27.77;;
62933;SDS011;49038;47.600;19.242;2023-03-01T16:58:40;67.68;;;24.23;;
62933;SDS011;49038;47.600;19.242;2023-03-01T17:01:42;56.75;;;24.40;;
62933;SDS011;49038;47.600;19.242;2023-03-01T17:04:45;55.92;;;25.75;;
62933;SDS011;49038;47.600;19.242;2023-03-01T17:07:52;43.25;;;19.52;;
62933;SDS011;49038;47.600;19.242;2023-03-01T17:11:16;35.30;;;18.80;;
62933;SDS011;49038;47.600;19.242;2023-03-01T17:14:20;27.67;;;12.85;;
62933;SDS011;49038;47.600;19.242;2023-03-01T17:17:22;108.32;;;35.97;;
62933;SDS011;49038;47.600;19.242;2023-03-01T17:20:24;58.22;;;25.37;;
62933;SDS011;49038;47.600;19.242;2023-03-01T17:23:27;46.03;;;18.25;;
62933;SDS011;49038;47.600;19.242;2023-03-01T17:26:30;39.63;;;20.17;;
62933;SDS011;49038;47.600;19.242;2023-03-01T17:29:34;70.25;;;35.10;;
62933;SDS011;49038;47.600;19.242;2023-03-01T17:32:36;73.85;;;32.83;;
62933;SDS011;49038;47.600;19.242;2023-03-01T17:35:39;61.22;;;28.30;;
62933;SDS011;49038;47.600;19.242;2023-03-01T17:38:41;50.33;;;23.83;;
62933;SDS011;49038;47.600;19.242;2023-03-01T17:41:44;54.03;;;22.67;;
62933;SDS011;49038;47.600;19.242;2023-03-01T17:44:46;93.45;;;30.20;;
62933;SDS011;49038;47.600;19.242;2023-03-01T17:47:48;43.17;;;18.90;;
62933;SDS011;49038;47.600;19.242;2023-03-01T17:50:51;50.25;;;21.30;;
62933;SDS011;49038;47.600;19.242;2023-03-01T17:53:54;54.00;;;20.05;;
62933;SDS011;49038;47.600;19.242;2023-03-01T17:56:56;58.17;;;22.48;;
62933;SDS011;49038;47.600;19.242;2023-03-01T17:59:59;55.65;;;22.65;;
62933;SDS011;49038;47.600;19.242;2023-03-01T18:03:02;40.47;;;19.42;;
62933;SDS011;49038;47.600;19.242;2023-03-01T18:06:17;43.13;;;18.10;;
62933;SDS011;49038;47.600;19.242;2023-03-01T18:09:27;41.83;;;18.92;;
62933;SDS011;49038;47.600;19.242;2023-03-01T18:12:29;81.55;;;30.23;;
62933;SDS011;49038;47.600;19.242;2023-03-01T18:15:33;103.28;;;32.80;;
62933;SDS011;49038;47.600;19.242;2023-03-01T18:18:35;139.52;;;41.78;;
62933;SDS011;49038;47.600;19.242;2023-03-01T18:21:38;145.82;;;41.37;;
62933;SDS011;49038;47.600;19.242;2023-03-01T18:24:40;126.87;;;44.08;;
62933;SDS011;49038;47.600;19.242;2023-03-01T18:27:43;63.92;;;27.00;;
62933;SDS011;49038;47.600;19.242;2023-03-01T18:30:45;45.55;;;19.08;;
62933;SDS011;49038;47.600;19.242;2023-03-01T18:33:48;62.70;;;21.40;;
62933;SDS011;49038;47.600;19.242;2023-03-01T18:36:52;38.58;;;17.87;;
62933;SDS011;49038;47.600;19.242;2023-03-01T18:40:10;37.90;;;20.00;;
62933;SDS011;49038;47.600;19.242;2023-03-01T18:43:14;27.65;;;13.13;;
62933;SDS011;49038;47.600;19.242;2023-03-01T18:46:17;35.10;;;15.93;;
62933;SDS011;49038;47.600;19.242;2023-03-01T18:49:21;37.47;;;16.45;;
62933;SDS011;49038;47.600;19.242;2023-03-01T18:52:24;35.47;;;14.10;;
62933;SDS011;49038;47.600;19.242;2023-03-01T18:55:27;36.95;;;17.27;;
62933;SDS011;49038;47.600;19.242;2023-03-01T18:58:29;38.38;;;17.55;;
62933;SDS011;49038;47.600;19.242;2023-03-01T19:01:32;36.13;;;14.68;;
62933;SDS011;49038;47.600;19.242;2023-03-01T19:04:38;31.60;;;13.57;;
62933;SDS011;49038;47.600;19.242;2023-03-01T19:07:41;52.65;;;22.67;;
62933;SDS011;49038;47.600;19.242;2023-03-01T19:10:44;35.47;;;15.35;;
62933;SDS011;49038;47.600;19.242;2023-03-01T19:13:46;31.83;;;13.60;;
62933;SDS011;49038;47.600;19.242;2023-03-01T19:16:52;27.27;;;10.85;;
62933;SDS011;49038;47.600;19.242;2023-03-01T19:19:58;27.45;;;13.25;;
62933;SDS011;49038;47.600;19.242;2023-03-01T19:23:00;25.58;;;13.32;;
62933;SDS011;49038;47.600;19.242;2023-03-01T19:26:05;29.63;;;15.60;;
62933;SDS011;49038;47.600;19.242;2023-03-01T19:29:09;33.40;;;14.82;;
62933;SDS011;49038;47.600;19.242;2023-03-01T19:32:13;23.12;;;12.43;;
62933;SDS011;49038;47.600;19.242;2023-03-01T19:35:16;45.97;;;20.42;;
62933;SDS011;49038;47.600;19.242;2023-03-01T19:38:20;55.50;;;25.12;;
62933;SDS011;49038;47.600;19.242;2023-03-01T19:41:24;32.72;;;15.57;;
62933;SDS011;49038;47.600;19.242;2023-03-01T19:44:28;28.25;;;15.40;;